createdAt,value
2018-07-03T00:00:41.645Z,0
2018-07-03T00:01:43.687Z,0
2018-07-03T00:02:45.711Z,0
2018-07-03T00:03:47.742Z,0
2018-07-03T00:04:50.122Z,0
2018-07-03T00:05:52.152Z,0
2018-07-03T00:06:54.184Z,0
2018-07-03T00:07:56.616Z,0
2018-07-03T00:08:58.658Z,0
2018-07-03T00:10:00.697Z,0
2018-07-03T00:11:02.732Z,0
2018-07-03T00:12:05.171Z,0
2018-07-03T00:13:07.188Z,0
2018-07-03T00:14:09.224Z,0
2018-07-03T00:15:11.270Z,0
2018-07-03T00:16:13.701Z,0
2018-07-03T00:17:16.024Z,0
2018-07-03T00:18:18.051Z,0
2018-07-03T00:19:20.105Z,0
2018-07-03T00:20:22.144Z,0
2018-07-03T00:21:24.178Z,0
2018-07-03T00:22:26.213Z,0
2018-07-03T00:23:28.259Z,0
2018-07-03T00:24:30.294Z,0
2018-07-03T00:25:32.725Z,0
2018-07-03T00:26:34.755Z,0
2018-07-03T00:27:36.807Z,0
2018-07-03T00:28:38.833Z,0
2018-07-03T00:29:40.874Z,0
2018-07-03T00:30:42.910Z,0
2018-07-03T00:31:44.943Z,0
2018-07-03T00:32:46.982Z,0
2018-07-03T00:33:49.406Z,0
2018-07-03T00:34:51.733Z,0
2018-07-03T00:35:53.794Z,0
2018-07-03T00:36:55.831Z,0
2018-07-03T00:37:57.857Z,0
2018-07-03T00:38:59.897Z,0
2018-07-03T00:40:01.941Z,0
2018-07-03T00:41:04.265Z,0
2018-07-03T00:42:06.299Z,0
2018-07-03T00:43:08.344Z,0
2018-07-03T00:44:10.384Z,0
2018-07-03T00:45:12.427Z,0
2018-07-03T00:46:14.460Z,0
2018-07-03T00:47:16.503Z,0
2018-07-03T00:48:19.203Z,0
2018-07-03T00:49:21.519Z,0
2018-07-03T00:50:23.556Z,0
2018-07-03T00:51:25.879Z,0
2018-07-03T00:52:27.924Z,0
2018-07-03T00:53:29.950Z,0
2018-07-03T00:54:32.379Z,0
2018-07-03T00:55:34.804Z,0
2018-07-03T00:56:36.837Z,0
2018-07-03T00:57:38.877Z,0
2018-07-03T00:58:40.918Z,0
2018-07-03T00:59:42.951Z,0
2018-07-03T01:00:44.992Z,0
2018-07-03T01:01:47.024Z,0
2018-07-03T01:02:49.356Z,0
2018-07-03T01:03:51.702Z,0
2018-07-03T01:04:53.741Z,0
2018-07-03T01:05:55.775Z,0
2018-07-03T01:06:57.812Z,0
2018-07-03T01:07:59.851Z,0
2018-07-03T01:09:01.883Z,0
2018-07-03T01:10:03.919Z,0
2018-07-03T01:11:05.961Z,0
2018-07-03T01:12:07.994Z,0
2018-07-03T01:13:10.039Z,0
2018-07-03T01:14:12.075Z,0
2018-07-03T01:15:14.112Z,0
2018-07-03T01:16:16.463Z,0
2018-07-03T01:17:18.507Z,0
2018-07-03T01:18:20.527Z,0
2018-07-03T01:19:22.567Z,0
2018-07-03T01:20:24.603Z,0
2018-07-03T01:21:27.335Z,0
2018-07-03T01:22:29.378Z,0
2018-07-03T01:23:31.417Z,0
2018-07-03T01:24:33.468Z,0
2018-07-03T01:25:35.500Z,0
2018-07-03T01:26:37.853Z,0
2018-07-03T01:27:39.896Z,0
2018-07-03T01:28:41.933Z,0
2018-07-03T01:29:43.967Z,0
2018-07-03T01:30:46.010Z,0
2018-07-03T01:31:48.039Z,0
2018-07-03T01:32:50.080Z,0
2018-07-03T01:33:52.385Z,0
2018-07-03T01:34:54.427Z,0
2018-07-03T01:35:56.466Z,0
2018-07-03T01:36:58.531Z,0
2018-07-03T01:38:00.532Z,0
2018-07-03T01:39:02.569Z,0
2018-07-03T01:40:04.917Z,0
2018-07-03T01:41:06.957Z,0
2018-07-03T01:42:08.989Z,0
2018-07-03T01:43:11.043Z,0
2018-07-03T01:44:13.347Z,0
2018-07-03T01:45:15.385Z,0
2018-07-03T01:46:17.710Z,0
2018-07-03T01:47:19.743Z,0
2018-07-03T01:48:21.777Z,0
2018-07-03T01:49:23.817Z,0
2018-07-03T01:50:25.853Z,0
2018-07-03T01:51:27.905Z,0
2018-07-03T01:52:29.940Z,0
2018-07-03T01:53:32.258Z,0
2018-07-03T01:54:34.300Z,0
2018-07-03T01:55:36.337Z,0
2018-07-03T01:56:38.664Z,0
2018-07-03T01:57:40.705Z,0
2018-07-03T01:58:42.734Z,0
2018-07-03T01:59:44.769Z,0
2018-07-03T02:00:46.813Z,4
2018-07-03T02:01:48.850Z,4
2018-07-03T02:02:50.896Z,4
2018-07-03T02:03:52.923Z,4
2018-07-03T02:04:54.964Z,0
2018-07-03T02:05:57.002Z,0
2018-07-03T02:06:59.427Z,4
2018-07-03T02:08:01.861Z,4
2018-07-03T02:09:03.885Z,4
2018-07-03T02:10:05.920Z,4
2018-07-03T02:11:08.240Z,4
2018-07-03T02:12:10.275Z,8
2018-07-03T02:13:12.629Z,8
2018-07-03T02:14:14.948Z,8
2018-07-03T02:15:16.991Z,12
2018-07-03T02:16:19.020Z,8
2018-07-03T02:17:21.611Z,12
2018-07-03T02:18:23.649Z,12
2018-07-03T02:19:25.691Z,12
2018-07-03T02:20:28.311Z,20
2018-07-03T02:21:30.355Z,20
2018-07-03T02:22:32.390Z,24
2018-07-03T02:23:34.424Z,24
2018-07-03T02:24:36.450Z,24
2018-07-03T02:25:38.485Z,28
2018-07-03T02:26:40.541Z,32
2018-07-03T02:27:42.573Z,36
2018-07-03T02:28:44.609Z,40
2018-07-03T02:29:46.942Z,44
2018-07-03T02:30:49.256Z,48
2018-07-03T02:31:51.293Z,56
2018-07-03T02:32:53.331Z,64
2018-07-03T02:33:55.361Z,72
2018-07-03T02:34:57.407Z,80
2018-07-03T02:35:59.836Z,88
2018-07-03T02:37:01.883Z,96
2018-07-03T02:38:04.202Z,104
2018-07-03T02:39:06.690Z,116
2018-07-03T02:40:08.663Z,124
2018-07-03T02:41:10.711Z,136
2018-07-03T02:42:12.748Z,152
2018-07-03T02:43:14.842Z,168
2018-07-03T02:44:16.879Z,180
2018-07-03T02:45:19.201Z,200
2018-07-03T02:46:21.514Z,216
2018-07-03T02:47:23.840Z,236
2018-07-03T02:48:26.168Z,256
2018-07-03T02:49:28.203Z,276
2018-07-03T02:50:30.625Z,300
2018-07-03T02:51:32.676Z,320
2018-07-03T02:52:35.296Z,348
2018-07-03T02:53:37.617Z,372
2018-07-03T02:54:39.657Z,396
2018-07-03T02:55:41.983Z,428
2018-07-03T02:56:44.028Z,456
2018-07-03T02:57:46.339Z,488
2018-07-03T02:58:48.776Z,520
2018-07-03T02:59:50.815Z,552
2018-07-03T03:00:53.131Z,584
2018-07-03T03:01:55.174Z,612
2018-07-03T03:02:57.514Z,648
2018-07-03T03:03:59.842Z,684
2018-07-03T03:05:02.160Z,716
2018-07-03T03:06:04.204Z,752
2018-07-03T03:07:06.255Z,788
2018-07-03T03:08:08.283Z,820
2018-07-03T03:09:10.316Z,852
2018-07-03T03:10:12.355Z,892
2018-07-03T03:11:14.784Z,928
2018-07-03T03:12:17.815Z,964
2018-07-03T03:13:19.859Z,1004
2018-07-03T03:14:21.882Z,1040
2018-07-03T03:15:23.920Z,1080
2018-07-03T03:16:25.949Z,1116
2018-07-03T03:17:27.983Z,1152
2018-07-03T03:18:30.307Z,1188
2018-07-03T03:19:32.638Z,1224
2018-07-03T03:20:35.899Z,1260
2018-07-03T03:21:37.937Z,1296
2018-07-03T03:22:40.374Z,1340
2018-07-03T03:23:42.675Z,1376
2018-07-03T03:24:44.995Z,1416
2018-07-03T03:25:47.410Z,1452
2018-07-03T03:26:49.452Z,1484
2018-07-03T03:27:51.795Z,1524
2018-07-03T03:28:53.822Z,1556
2018-07-03T03:29:55.862Z,1596
2018-07-03T03:30:57.901Z,1632
2018-07-03T03:32:00.234Z,1676
2018-07-03T03:33:02.543Z,1716
2018-07-03T03:34:04.589Z,1756
2018-07-03T03:35:06.625Z,1796
2018-07-03T03:36:08.665Z,1828
2018-07-03T03:37:10.700Z,1864
2018-07-03T03:38:12.738Z,1896
2018-07-03T03:39:14.776Z,1928
2018-07-03T03:40:16.805Z,1968
2018-07-03T03:41:19.222Z,1996
2018-07-03T03:42:21.547Z,2024
2018-07-03T03:43:23.574Z,2056
2018-07-03T03:44:25.892Z,2084
2018-07-03T03:45:27.931Z,2116
2018-07-03T03:46:30.263Z,2148
2018-07-03T03:47:32.287Z,2180
2018-07-03T03:48:34.328Z,2212
2018-07-03T03:49:36.371Z,2244
2018-07-03T03:50:38.721Z,2276
2018-07-03T03:51:40.755Z,2304
2018-07-03T03:52:42.785Z,2328
2018-07-03T03:53:45.174Z,2360
2018-07-03T03:54:47.147Z,2388
2018-07-03T03:55:49.180Z,2420
2018-07-03T03:56:51.230Z,2444
2018-07-03T03:57:53.263Z,2472
2018-07-03T03:58:55.303Z,2500
2018-07-03T03:59:57.343Z,2524
2018-07-03T04:00:59.727Z,2552
2018-07-03T04:02:02.217Z,2576
2018-07-03T04:03:04.460Z,2604
2018-07-03T04:04:06.495Z,2624
2018-07-03T04:05:08.538Z,2652
2018-07-03T04:06:10.562Z,2676
2018-07-03T04:07:13.268Z,2704
2018-07-03T04:08:15.698Z,2728
2018-07-03T04:09:17.731Z,2756
2018-07-03T04:10:19.775Z,2776
2018-07-03T04:11:21.810Z,2804
2018-07-03T04:12:24.132Z,2828
2018-07-03T04:13:26.474Z,2852
2018-07-03T04:14:28.507Z,2876
2018-07-03T04:15:30.546Z,2900
2018-07-03T04:16:32.576Z,2920
2018-07-03T04:17:37.950Z,2944
2018-07-03T04:18:39.991Z,2968
2018-07-03T04:19:41.992Z,2984
2018-07-03T04:20:45.450Z,3004
2018-07-03T04:21:47.496Z,3028
2018-07-03T04:22:49.515Z,3044
2018-07-03T04:23:51.560Z,3068
2018-07-03T04:24:53.596Z,3088
2018-07-03T04:25:55.631Z,3104
2018-07-03T04:26:57.947Z,3128
2018-07-03T04:28:01.375Z,3148
2018-07-03T04:29:03.398Z,3168
2018-07-03T04:30:05.394Z,3184
2018-07-03T04:31:07.421Z,3208
2018-07-03T04:32:09.415Z,3228
2018-07-03T04:33:11.417Z,3244
2018-07-03T04:34:13.418Z,3264
2018-07-03T04:35:15.415Z,3280
2018-07-03T04:36:17.406Z,3300
2018-07-03T04:37:19.395Z,3316
2018-07-03T04:38:21.703Z,3336
2018-07-03T04:39:24.331Z,3352
2018-07-03T04:40:26.365Z,3372
2018-07-03T04:41:28.409Z,3388
2018-07-03T04:44:03.084Z,3428
2018-07-03T04:45:08.152Z,3448
2018-07-03T04:46:10.198Z,3464
2018-07-03T04:47:12.252Z,3480
2018-07-03T04:48:14.284Z,3496
2018-07-03T04:49:16.609Z,3516
2018-07-03T04:50:18.929Z,3532
2018-07-03T04:51:20.961Z,3548
2018-07-03T04:52:23.010Z,3560
2018-07-03T04:53:25.089Z,3580
2018-07-03T04:54:27.080Z,3600
2018-07-03T04:55:29.117Z,3612
2018-07-03T04:56:31.441Z,3628
2018-07-03T04:57:33.485Z,3644
2018-07-03T04:58:35.838Z,3656
2018-07-03T04:59:37.880Z,3676
2018-07-03T05:00:39.930Z,3688
2018-07-03T05:01:41.951Z,3700
2018-07-03T05:02:43.949Z,3716
2018-07-03T05:03:49.022Z,3732
2018-07-03T05:04:51.056Z,3744
2018-07-03T05:05:53.093Z,3760
2018-07-03T05:06:55.128Z,3776
2018-07-03T05:07:58.574Z,3792
2018-07-03T05:09:00.583Z,3804
2018-07-03T05:10:03.320Z,3824
2018-07-03T05:11:05.977Z,3840
2018-07-03T05:12:07.988Z,3856
2018-07-03T05:13:10.272Z,3868
2018-07-03T05:14:12.274Z,3888
2018-07-03T05:15:14.277Z,3896
2018-07-03T05:16:16.276Z,3908
2018-07-03T05:17:18.284Z,3920
2018-07-03T05:18:20.276Z,3932
2018-07-03T05:19:22.272Z,3948
2018-07-03T05:20:24.281Z,3964
2018-07-03T05:21:26.281Z,3972
2018-07-03T05:22:31.322Z,3988
2018-07-03T05:23:33.364Z,4004
2018-07-03T05:24:35.716Z,4016
2018-07-03T05:25:37.737Z,4032
2018-07-03T05:26:40.009Z,4040
2018-07-03T05:27:45.067Z,4056
2018-07-03T05:28:47.108Z,4068
2018-07-03T05:29:49.452Z,4084
2018-07-03T05:30:51.778Z,4096
2018-07-03T05:31:53.831Z,4108
2018-07-03T05:32:56.253Z,4120
2018-07-03T05:33:58.285Z,4136
2018-07-03T05:35:00.332Z,4152
2018-07-03T05:36:02.437Z,4168
2018-07-03T05:37:04.474Z,4188
2018-07-03T05:38:06.521Z,4196
2018-07-03T05:39:08.564Z,4212
2018-07-03T05:40:10.607Z,4224
2018-07-03T05:41:12.647Z,4236
2018-07-03T05:42:14.965Z,4248
2018-07-03T05:43:17.019Z,4264
2018-07-03T05:44:19.067Z,4280
2018-07-03T05:45:21.380Z,4296
2018-07-03T05:46:23.418Z,4312
2018-07-03T05:47:25.461Z,4328
2018-07-03T05:48:27.505Z,4340
2018-07-03T05:49:29.551Z,4348
2018-07-03T05:50:31.871Z,4364
2018-07-03T05:51:33.929Z,4368
2018-07-03T05:52:36.354Z,4376
2018-07-03T05:53:38.399Z,4388
2018-07-03T05:54:40.442Z,4396
2018-07-03T05:55:42.488Z,4404
2018-07-03T05:56:44.529Z,4424
2018-07-03T05:57:46.565Z,4440
2018-07-03T05:58:48.596Z,4452
2018-07-03T05:59:51.419Z,4460
2018-07-03T06:00:53.469Z,4472
2018-07-03T06:01:55.506Z,4480
2018-07-03T06:02:57.549Z,4492
2018-07-03T06:03:59.594Z,4504
2018-07-03T06:05:01.647Z,4516
2018-07-03T06:06:03.671Z,4524
2018-07-03T06:07:05.717Z,4536
2018-07-03T06:08:07.773Z,4552
2018-07-03T06:09:10.185Z,4564
2018-07-03T06:10:12.845Z,4576
2018-07-03T06:11:14.881Z,4584
2018-07-03T06:12:17.235Z,4596
2018-07-03T06:13:19.277Z,4608
2018-07-03T06:14:21.315Z,4620
2018-07-03T06:15:23.372Z,4632
2018-07-03T06:16:25.414Z,4640
2018-07-03T06:17:27.453Z,4652
2018-07-03T06:18:29.499Z,4660
2018-07-03T06:19:31.539Z,4676
2018-07-03T06:20:33.587Z,4692
2018-07-03T06:21:35.619Z,4700
2018-07-03T06:22:37.680Z,4720
2018-07-03T06:23:39.714Z,4736
2018-07-03T06:24:42.053Z,4744
2018-07-03T06:25:44.101Z,4760
2018-07-03T06:26:46.444Z,4776
2018-07-03T06:27:48.788Z,4792
2018-07-03T06:28:50.853Z,4804
2018-07-03T06:29:53.201Z,4824
2018-07-03T06:30:55.249Z,4840
2018-07-03T06:31:57.293Z,4856
2018-07-03T06:32:59.349Z,4872
2018-07-03T06:34:01.401Z,4888
2018-07-03T06:35:04.114Z,4904
2018-07-03T06:36:06.169Z,4912
2018-07-03T06:37:08.208Z,4924
2018-07-03T06:38:10.253Z,4932
2018-07-03T06:39:12.297Z,4944
2018-07-03T06:40:14.339Z,4948
2018-07-03T06:41:16.396Z,4972
2018-07-03T06:42:18.447Z,4992
2018-07-03T06:43:20.496Z,5008
2018-07-03T06:44:22.540Z,5024
2018-07-03T06:45:25.153Z,5040
2018-07-03T06:46:27.204Z,5060
2018-07-03T06:47:29.239Z,5088
2018-07-03T06:48:31.270Z,5104
2018-07-03T06:49:33.276Z,5136
2018-07-03T06:50:35.297Z,5152
2018-07-03T06:51:37.333Z,5176
2018-07-03T06:52:39.361Z,5196
2018-07-03T06:53:41.403Z,5216
2018-07-03T06:54:43.453Z,5232
2018-07-03T06:55:45.787Z,5248
2018-07-03T06:56:47.834Z,5260
2018-07-03T06:57:49.993Z,5272
2018-07-03T06:58:51.884Z,5284
2018-07-03T06:59:54.176Z,5296
2018-07-03T07:00:56.186Z,5308
2018-07-03T07:01:58.476Z,5324
2018-07-03T07:03:00.761Z,5340
2018-07-03T07:04:03.055Z,5360
2018-07-03T07:05:05.088Z,5384
2018-07-03T07:06:07.137Z,5404
2018-07-03T07:07:09.466Z,5416
2018-07-03T07:08:11.539Z,5432
2018-07-03T07:09:13.792Z,5444
2018-07-03T07:10:15.649Z,5460
2018-07-03T07:11:17.693Z,5480
2018-07-03T07:12:19.754Z,5500
2018-07-03T07:13:21.792Z,5516
2018-07-03T07:14:23.834Z,5540
2018-07-03T07:15:26.280Z,5564
2018-07-03T07:16:28.326Z,5580
2018-07-03T07:17:30.373Z,5596
2018-07-03T07:18:32.419Z,5612
2018-07-03T07:19:34.465Z,5620
2018-07-03T07:20:36.517Z,5632
2018-07-03T07:21:38.558Z,5640
2018-07-03T07:22:40.606Z,5648
2018-07-03T07:23:43.031Z,5660
2018-07-03T07:24:45.465Z,5672
2018-07-03T07:25:47.513Z,5676
2018-07-03T07:26:49.572Z,5696
2018-07-03T07:27:51.997Z,5700
2018-07-03T07:28:54.056Z,5728
2018-07-03T07:29:56.098Z,5744
2018-07-03T07:30:58.152Z,5752
2018-07-03T07:32:00.200Z,5760
2018-07-03T07:33:02.533Z,5776
2018-07-03T07:34:04.875Z,5792
2018-07-03T07:35:07.310Z,5812
2018-07-03T07:36:09.374Z,5824
2018-07-03T07:37:11.424Z,5836
2018-07-03T07:38:13.486Z,5848
2018-07-03T07:39:15.836Z,5868
2018-07-03T07:40:17.893Z,5884
2018-07-03T07:41:20.228Z,5900
2018-07-03T07:42:22.230Z,5916
2018-07-03T07:43:24.236Z,5932
2018-07-03T07:44:26.621Z,5944
2018-07-03T07:45:28.628Z,5964
2018-07-03T07:46:30.652Z,5976
2018-07-03T07:47:32.707Z,5992
2018-07-03T07:48:34.747Z,6000
2018-07-03T07:49:37.464Z,6016
2018-07-03T07:50:39.506Z,6020
2018-07-03T07:51:41.545Z,6036
2018-07-03T07:52:43.560Z,6052
2018-07-03T07:53:45.600Z,6060
2018-07-03T07:54:47.663Z,6068
2018-07-03T07:55:49.720Z,6092
2018-07-03T07:56:52.048Z,6104
2018-07-03T07:57:54.405Z,6116
2018-07-03T07:58:56.454Z,6132
2018-07-03T07:59:58.496Z,6148
2018-07-03T08:01:00.580Z,6160
2018-07-03T08:02:02.583Z,6184
2018-07-03T08:03:04.589Z,6196
2018-07-03T08:04:07.371Z,6216
2018-07-03T08:05:09.657Z,6236
2018-07-03T08:06:11.668Z,6248
2018-07-03T08:07:13.676Z,6264
2018-07-03T08:08:15.675Z,6292
2018-07-03T08:09:17.687Z,6312
2018-07-03T08:10:19.732Z,6340
2018-07-03T08:11:21.787Z,6368
2018-07-03T08:12:23.835Z,6400
2018-07-03T08:13:26.315Z,6432
2018-07-03T08:14:28.309Z,6480
2018-07-03T08:15:30.349Z,6520
2018-07-03T08:16:32.370Z,6572
2018-07-03T08:17:34.424Z,6616
2018-07-03T08:18:36.790Z,6676
2018-07-03T08:19:39.736Z,6732
2018-07-03T08:20:41.783Z,6800
2018-07-03T08:21:44.078Z,6852
2018-07-03T08:22:46.121Z,6892
2018-07-03T08:23:48.555Z,6916
2018-07-03T08:24:50.592Z,6908
2018-07-03T08:25:52.617Z,6900
2018-07-03T08:26:55.949Z,6908
2018-07-03T08:27:58.304Z,6924
2018-07-03T08:29:00.716Z,6948
2018-07-03T08:30:02.740Z,6968
2018-07-03T08:31:05.081Z,6984
2018-07-03T08:32:07.128Z,7000
2018-07-03T08:33:09.164Z,7112
2018-07-03T08:34:11.191Z,8436
2018-07-03T08:35:16.966Z,16816
2018-07-03T08:36:19.020Z,11496
2018-07-03T08:37:21.063Z,20352
2018-07-03T08:38:23.412Z,26880
2018-07-03T08:39:25.475Z,27136
2018-07-03T08:40:27.796Z,32000
2018-07-03T08:41:29.831Z,30208
2018-07-03T08:42:32.785Z,35424
2018-07-03T08:43:35.102Z,28832
2018-07-03T08:44:39.429Z,35392
2018-07-03T08:45:41.948Z,31008
2018-07-03T08:46:44.017Z,36512
2018-07-03T08:47:46.320Z,28608
2018-07-03T08:48:48.678Z,58048
2018-07-03T08:49:51.289Z,95232
2018-07-03T08:50:53.333Z,89152
2018-07-03T08:51:56.071Z,82624
2018-07-03T08:52:58.089Z,82240
2018-07-03T08:54:00.161Z,84192
2018-07-03T08:55:02.870Z,91840
2018-07-03T08:56:04.878Z,89440
2018-07-03T08:57:07.002Z,76352
2018-07-03T08:58:09.082Z,75200
2018-07-03T08:59:11.148Z,85216
2018-07-03T09:00:13.263Z,94400
2018-07-03T09:01:15.814Z,99136
2018-07-03T09:02:18.460Z,97632
2018-07-03T09:03:20.720Z,88352
2018-07-03T09:04:23.200Z,88160
2018-07-03T09:05:26.041Z,88864
2018-07-03T09:06:28.313Z,90240
2018-07-03T09:07:30.718Z,88640
2018-07-03T09:08:32.767Z,92608
2018-07-03T09:09:34.798Z,86528
2018-07-03T09:10:38.260Z,81984
2018-07-03T09:11:40.314Z,90496
2018-07-03T09:12:42.319Z,94080
2018-07-03T09:13:44.354Z,85280
2018-07-03T09:14:46.381Z,89312
2018-07-03T09:15:50.082Z,93408
2018-07-03T09:16:52.126Z,96640
2018-07-03T09:17:54.314Z,97632
2018-07-03T09:18:56.252Z,94784
2018-07-03T09:19:58.865Z,93504
2018-07-03T09:21:01.218Z,97952
2018-07-03T09:22:03.260Z,100032
2018-07-03T09:23:05.278Z,95136
2018-07-03T09:24:07.322Z,97920
2018-07-03T09:25:09.346Z,101184
2018-07-03T09:26:11.362Z,100160
2018-07-03T09:27:13.605Z,104128
2018-07-03T09:28:15.919Z,107488
2018-07-03T09:29:17.999Z,105664
2018-07-03T09:30:20.233Z,100160
2018-07-03T09:31:22.530Z,102080
2018-07-03T09:32:26.001Z,101664
2018-07-03T09:33:28.051Z,101152
2018-07-03T09:34:30.080Z,103136
2018-07-03T09:35:32.169Z,99936
2018-07-03T09:36:34.615Z,98112
2018-07-03T09:37:37.478Z,95328
2018-07-03T09:38:40.654Z,98432
2018-07-03T09:39:42.808Z,104992
2018-07-03T09:40:45.217Z,102592
2018-07-03T09:41:47.276Z,94272
2018-07-03T09:42:49.310Z,98016
2018-07-03T09:43:51.364Z,103744
2018-07-03T09:44:53.426Z,105280
2018-07-03T09:45:55.437Z,102688
2018-07-03T09:46:57.451Z,108512
2018-07-03T09:47:59.487Z,115424
2018-07-03T09:50:33.741Z,108480
2018-07-03T09:51:35.763Z,115968
2018-07-03T09:52:37.806Z,103872
2018-07-03T09:53:41.315Z,105920
2018-07-03T09:54:43.717Z,118528
2018-07-03T09:55:45.936Z,125504
2018-07-03T09:56:48.167Z,123456
2018-07-03T09:57:50.532Z,121088
2018-07-03T09:58:52.869Z,116992
2018-07-03T09:59:54.915Z,113504
2018-07-03T10:00:58.773Z,123104
2018-07-03T10:02:01.484Z,130528
2018-07-03T10:03:03.809Z,122368
2018-07-03T10:04:06.774Z,113792
2018-07-03T10:05:09.997Z,113504
2018-07-03T10:06:12.252Z,123488
2018-07-03T10:07:15.084Z,120288
2018-07-03T10:08:17.771Z,108896
2018-07-03T10:09:21.176Z,108928
2018-07-03T10:10:24.161Z,127680
2018-07-03T10:11:27.412Z,136000
2018-07-03T10:12:30.530Z,129696
2018-07-03T10:13:33.023Z,131424
2018-07-03T10:14:35.619Z,127520
2018-07-03T10:15:38.984Z,116000
2018-07-03T10:16:41.627Z,112512
2018-07-03T10:17:44.076Z,114496
2018-07-03T10:18:47.276Z,119200
2018-07-03T10:19:51.076Z,118240
2018-07-03T10:20:53.906Z,118752
2018-07-03T10:21:56.617Z,127808
2018-07-03T10:23:00.291Z,138144
2018-07-03T10:24:02.821Z,134784
2018-07-03T10:25:05.507Z,123776
2018-07-03T10:26:09.261Z,123040
2018-07-03T10:27:13.569Z,129760
2018-07-03T10:28:16.204Z,122048
2018-07-03T10:29:18.618Z,117504
2018-07-03T10:30:21.355Z,126144
2018-07-03T10:31:24.007Z,16352
2018-07-03T10:32:27.171Z,18472
2018-07-03T10:33:29.612Z,135808
2018-07-03T10:34:32.005Z,119424
2018-07-03T10:35:34.939Z,105440
2018-07-03T10:36:38.025Z,108416
2018-07-03T10:37:40.365Z,68768
2018-07-03T10:38:43.142Z,105088
2018-07-03T10:39:45.612Z,117984
2018-07-03T10:40:48.151Z,119872
2018-07-03T10:41:50.714Z,119936
2018-07-03T10:42:53.129Z,121184
2018-07-03T10:43:55.499Z,119776
2018-07-03T10:44:57.936Z,117152
2018-07-03T10:46:01.068Z,118400
2018-07-03T10:47:03.769Z,122176
2018-07-03T10:48:06.167Z,127296
2018-07-03T10:49:12.139Z,123232
2018-07-03T10:50:16.445Z,118848
2018-07-03T10:51:22.308Z,119424
2018-07-03T10:52:26.340Z,118688
2018-07-03T10:53:31.759Z,119040
2018-07-03T10:54:35.442Z,123168
2018-07-03T10:55:40.676Z,125984
2018-07-03T10:56:44.856Z,123200
2018-07-03T10:57:48.665Z,119168
2018-07-03T10:58:51.867Z,118752
2018-07-03T10:59:56.189Z,122976
2018-07-03T11:01:00.914Z,127392
2018-07-03T11:02:05.297Z,125920
2018-07-03T11:03:09.941Z,120480
2018-07-03T11:04:13.552Z,122208
2018-07-03T11:05:15.980Z,124000
2018-07-03T11:06:18.428Z,116608
2018-07-03T11:07:20.467Z,116864
2018-07-03T11:08:22.507Z,121664
2018-07-03T11:09:25.233Z,124800
2018-07-03T11:10:27.552Z,127552
2018-07-03T11:11:29.873Z,128160
2018-07-03T11:12:31.937Z,132064
2018-07-03T11:13:33.986Z,130624
2018-07-03T11:14:36.109Z,120576
2018-07-03T11:15:38.287Z,115968
2018-07-03T11:16:40.455Z,114528
2018-07-03T11:17:42.445Z,115904
2018-07-03T11:18:44.480Z,123328
2018-07-03T11:19:46.587Z,132480
2018-07-03T11:20:49.024Z,142752
2018-07-03T11:21:51.452Z,147040
2018-07-03T11:22:53.748Z,148288
2018-07-03T11:23:55.788Z,142976
2018-07-03T11:24:57.811Z,136128
2018-07-03T11:26:00.144Z,132640
2018-07-03T11:27:02.189Z,134880
2018-07-03T11:28:04.233Z,137280
2018-07-03T11:29:06.260Z,129216
2018-07-03T11:30:08.323Z,126848
2018-07-03T11:31:10.352Z,136096
2018-07-03T11:32:12.650Z,144960
2018-07-03T11:33:14.683Z,141952
2018-07-03T11:34:16.711Z,141184
2018-07-03T11:35:18.739Z,146080
2018-07-03T11:36:20.773Z,144416
2018-07-03T11:37:22.807Z,134560
2018-07-03T11:38:24.837Z,133344
2018-07-03T11:39:26.913Z,139424
2018-07-03T11:40:28.937Z,141312
2018-07-03T11:41:30.977Z,147968
2018-07-03T11:42:33.010Z,149984
2018-07-03T11:43:35.442Z,142432
2018-07-03T11:44:37.476Z,138976
2018-07-03T11:45:39.797Z,139936
2018-07-03T11:46:42.116Z,133824
2018-07-03T11:47:44.146Z,119328
2018-07-03T11:48:46.181Z,113824
2018-07-03T11:49:48.209Z,118752
2018-07-03T11:50:50.239Z,126656
2018-07-03T11:51:52.261Z,125440
2018-07-03T11:52:54.614Z,113280
2018-07-03T11:53:56.648Z,111296
2018-07-03T11:54:58.674Z,126368
2018-07-03T11:56:00.985Z,138880
2018-07-03T11:57:03.322Z,132448
2018-07-03T11:58:05.352Z,121088
2018-07-03T11:59:07.376Z,116256
2018-07-03T12:00:09.416Z,120704
2018-07-03T12:01:11.451Z,130816
2018-07-03T12:02:13.478Z,132704
2018-07-03T12:03:15.782Z,121856
2018-07-03T12:04:17.812Z,112768
2018-07-03T12:05:20.010Z,108256
2018-07-03T12:06:23.338Z,110080
2018-07-03T12:07:25.614Z,116224
2018-07-03T12:08:27.986Z,129440
2018-07-03T12:09:30.029Z,132288
2018-07-03T12:10:32.131Z,126432
2018-07-03T12:11:34.270Z,127104
2018-07-03T12:12:36.680Z,128768
2018-07-03T12:13:39.599Z,123104
2018-07-03T12:14:41.773Z,116288
2018-07-03T12:15:44.214Z,112512
2018-07-03T12:16:46.371Z,102016
2018-07-03T12:17:49.106Z,96352
2018-07-03T12:18:52.023Z,99616
2018-07-03T12:19:54.561Z,107968
2018-07-03T12:20:56.533Z,118496
2018-07-03T12:21:59.502Z,118144
2018-07-03T12:23:02.589Z,108320
2018-07-03T12:24:05.481Z,101472
2018-07-03T12:25:07.565Z,110816
2018-07-03T12:26:09.981Z,119584
2018-07-03T12:27:12.116Z,123008
2018-07-03T12:28:14.630Z,116992
2018-07-03T12:29:16.716Z,110656
2018-07-03T12:30:18.773Z,109792
2018-07-03T12:31:21.205Z,114784
2018-07-03T12:32:23.579Z,126880
2018-07-03T12:33:26.038Z,132288
2018-07-03T12:34:28.922Z,128256
2018-07-03T12:35:31.072Z,121440
2018-07-03T12:36:33.382Z,118912
2018-07-03T12:37:35.493Z,118336
2018-07-03T12:38:37.996Z,120704
2018-07-03T12:39:40.052Z,119168
2018-07-03T12:40:42.497Z,118592
2018-07-03T12:41:44.942Z,122272
2018-07-03T12:42:47.001Z,127232
2018-07-03T12:43:49.074Z,131776
2018-07-03T12:44:51.130Z,121280
2018-07-03T12:45:53.866Z,103552
2018-07-03T12:46:55.934Z,105184
2018-07-03T12:47:57.995Z,107488
2018-07-03T12:49:00.082Z,104576
2018-07-03T12:50:02.444Z,106336
2018-07-03T12:51:04.469Z,107104
2018-07-03T12:52:06.489Z,109120
2018-07-03T12:53:08.512Z,118048
2018-07-03T12:54:10.527Z,125440
2018-07-03T12:55:12.557Z,126400
2018-07-03T12:56:14.957Z,114592
2018-07-03T12:57:17.005Z,128800
2018-07-03T12:58:19.036Z,124768
2018-07-03T12:59:21.444Z,113376
2018-07-03T13:00:23.461Z,110880
2018-07-03T13:01:25.485Z,115840
2018-07-03T13:02:27.499Z,116448
2018-07-03T13:03:29.909Z,111616
2018-07-03T13:04:31.925Z,113504
2018-07-03T13:05:33.949Z,111104
2018-07-03T13:06:36.250Z,108384
2018-07-03T13:07:38.279Z,107712
2018-07-03T13:08:40.286Z,102880
2018-07-03T13:09:42.317Z,99232
2018-07-03T13:10:44.339Z,101632
2018-07-03T13:11:46.357Z,98304
2018-07-03T13:12:48.377Z,95360
2018-07-03T13:13:50.395Z,96480
2018-07-03T13:14:52.415Z,95424
2018-07-03T13:15:55.864Z,95968
2018-07-03T13:16:58.185Z,108704
2018-07-03T13:18:00.596Z,119520
2018-07-03T13:19:02.938Z,109728
2018-07-03T13:20:04.970Z,95520
2018-07-03T13:21:06.986Z,95520
2018-07-03T13:22:09.008Z,96512
2018-07-03T13:23:11.033Z,99200
2018-07-03T13:24:13.049Z,102016
2018-07-03T13:25:15.073Z,99872
2018-07-03T13:26:17.081Z,100480
2018-07-03T13:27:19.400Z,101856
2018-07-03T13:28:21.706Z,96128
2018-07-03T13:29:24.009Z,94976
2018-07-03T13:30:26.327Z,97696
2018-07-03T13:31:28.665Z,103648
2018-07-03T13:32:30.672Z,106432
2018-07-03T13:33:32.961Z,104320
2018-07-03T13:34:34.984Z,100576
2018-07-03T13:35:37.399Z,106304
2018-07-03T13:36:39.412Z,121568
2018-07-03T13:37:41.437Z,117664
2018-07-03T13:38:43.456Z,125408
2018-07-03T13:39:45.490Z,125280
2018-07-03T13:40:47.500Z,116352
2018-07-03T13:41:49.521Z,111488
2018-07-03T13:42:51.557Z,118656
2018-07-03T13:43:53.568Z,117760
2018-07-03T13:44:55.583Z,103264
2018-07-03T13:45:57.603Z,93376
2018-07-03T13:46:59.630Z,93056
2018-07-03T13:48:02.093Z,101376
2018-07-03T13:49:04.796Z,103328
2018-07-03T13:50:06.833Z,102464